Time;durP1;ratioP1;P1;durP2;ratioP2;P2;SDS_P1;SDS_P2;PMS_P1;PMS_P2;Temp;Humidity;BMP_temperature;BMP_pressure;BME280_temperature;BME280_humidity;BME280_pressure;Samples;Min_cycle;Max_cycle;Signal;HPM_P1;HPM_P2
2022/11/17 04:58:18;;;;;;;;;;;20.50;98.30;;;;;;5519082;23;19926;-79
2022/11/17 05:00:44;;;;;;;;;;;20.60;98.00;;;;;;4980165;28;19931;-79
2022/11/17 05:03:11;;;;;;;;;;;20.60;98.10;;;;;;4979308;28;19926;-79
2022/11/17 05:05:37;;;;;;;;;;;20.50;98.10;;;;;;4979833;28;19933;-80
2022/11/17 05:08:04;;;;;;;;;;;20.50;98.10;;;;;;4981391;28;19926;-80
2022/11/17 05:13:23;;;;;;;;;;;20.50;98.20;;;;;;4979333;28;19926;-78
2022/11/17 05:18:37;;;;;;;;;;;20.50;98.30;;;;;;4978222;28;19981;-79
2022/11/17 05:21:04;;;;;;;;;;;20.50;98.40;;;;;;4977228;28;19926;-79
2022/11/17 05:26:15;;;;;;;;;;;20.50;98.50;;;;;;4977421;28;20453;-79
2022/11/17 05:28:41;;;;;;;;;;;20.50;98.60;;;;;;4978166;28;19933;-79
2022/11/17 05:31:10;;;;;;;;;;;20.50;98.60;;;;;;4979662;28;19937;-82
2022/11/17 05:33:36;;;;;;;;;;;20.50;98.60;;;;;;4978493;28;20321;-81
2022/11/17 05:36:03;;;;;;;;;;;20.50;98.70;;;;;;4978818;28;19926;-80
2022/11/17 05:38:30;;;;;;;;;;;20.50;98.70;;;;;;4977984;28;19926;-78
2022/11/17 05:40:56;;;;;;;;;;;20.50;98.70;;;;;;4977928;28;19926;-80
2022/11/17 05:43:23;;;;;;;;;;;20.50;98.80;;;;;;4977822;28;19926;-86
2022/11/17 05:45:49;;;;;;;;;;;20.50;98.90;;;;;;4978804;28;19926;-79
2022/11/17 05:48:17;;;;;;;;;;;20.50;99.00;;;;;;4978363;28;20381;-79
2022/11/17 05:50:44;;;;;;;;;;;20.60;99.00;;;;;;4976322;28;19926;-77
2022/11/17 05:53:11;;;;;;;;;;;20.50;99.00;;;;;;4975916;28;20400;-78
2022/11/17 05:55:37;;;;;;;;;;;20.50;98.90;;;;;;4976219;28;19926;-77
2022/11/17 05:58:06;;;;;;;;;;;20.50;98.90;;;;;;4975997;28;19932;-78
2022/11/17 06:00:33;;;;;;;;;;;20.50;99.00;;;;;;4975495;28;19932;-77
2022/11/17 06:03:02;;;;;;;;;;;20.50;98.60;;;;;;4975959;28;19933;-78
2022/11/17 06:05:29;;;;;;;;;;;20.50;98.40;;;;;;4975903;28;19937;-77
2022/11/17 11:06:02;;;;;;;;;;;20.60;88.20;;;;;;4976687;28;20053;-82
2022/11/17 11:08:33;;;;;;;;;;;20.60;88.20;;;;;;4977956;28;20429;-82
2022/11/17 11:11:00;;;;;;;;;;;20.60;88.10;;;;;;4979330;28;20404;-82
2022/11/17 11:13:30;;;;;;;;;;;20.60;88.00;;;;;;4981114;28;20415;-83
2022/11/17 11:15:57;;;;;;;;;;;20.60;88.00;;;;;;4982011;28;19933;-83
2022/11/17 11:18:24;;;;;;;;;;;20.60;87.80;;;;;;4981661;28;20369;-82
2022/11/17 11:20:55;;;;;;;;;;;20.60;87.70;;;;;;4980467;28;19927;-82
2022/11/17 11:23:30;;;;;;;;;;;20.60;87.70;;;;;;4983911;28;19926;-86
2022/11/17 11:26:01;;;;;;;;;;;20.90;88.00;;;;;;4979152;28;20382;-87
2022/11/17 11:28:35;;;;;;;;;;;20.60;87.60;;;;;;4978368;28;19926;-87
2022/11/17 11:31:08;;;;;;;;;;;19.90;87.00;;;;;;4979299;28;19926;-86
2022/11/17 11:33:37;;;;;;;;;;;20.60;87.90;;;;;;4978352;28;19926;-86
2022/11/17 11:36:13;;;;;;;;;;;20.60;88.10;;;;;;4979132;28;19926;-87
2022/11/17 11:38:52;;;;;;;;;;;21.80;89.60;;;;;;4978968;28;20020;-87
2022/11/17 11:41:31;;;;;;;;;;;20.70;88.60;;;;;;4978784;28;19934;-87
2022/11/17 11:44:03;;;;;;;;;;;20.80;88.90;;;;;;4978869;28;20374;-86
2022/11/17 11:46:37;;;;;;;;;;;20.80;89.10;;;;;;4980063;28;19926;-83
2022/11/17 11:49:07;;;;;;;;;;;20.80;89.40;;;;;;4979934;28;19926;-84
2022/11/17 11:51:36;;;;;;;;;;;20.90;89.70;;;;;;4979897;28;19926;-83
2022/11/17 11:54:09;;;;;;;;;;;21.00;90.00;;;;;;4982297;28;19930;-82
2022/11/17 11:56:38;;;;;;;;;;;21.00;90.10;;;;;;4985589;28;19937;-84
2022/11/17 11:59:06;;;;;;;;;;;21.00;90.20;;;;;;4982958;28;19933;-82
2022/11/17 12:01:41;;;;;;;;;;;21.00;90.30;;;;;;4980686;28;19930;-83
2022/11/17 12:04:14;;;;;;;;;;;21.00;90.40;;;;;;4982319;28;19927;-83
2022/11/17 12:06:43;;;;;;;;;;;21.10;90.50;;;;;;4984644;28;20302;-83
2022/11/17 12:09:25;;;;;;;;;;;21.10;90.60;;;;;;4983958;28;19933;-82
2022/11/17 12:12:02;;;;;;;;;;;21.10;90.70;;;;;;4982809;28;19933;-82
2022/11/17 12:14:29;;;;;;;;;;;21.20;90.90;;;;;;4980638;28;19926;-82
2022/11/17 12:17:17;;;;;;;;;;;21.20;90.90;;;;;;4980137;28;19977;-83
2022/11/17 12:19:52;;;;;;;;;;;21.30;91.00;;;;;;4979878;28;19973;-83
2022/11/17 12:22:34;;;;;;;;;;;21.30;91.00;;;;;;4979056;28;19926;-83
2022/11/17 12:25:04;;;;;;;;;;;21.30;91.20;;;;;;4936431;28;19933;-83
2022/11/17 12:27:32;;;;;;;;;;;21.40;91.30;;;;;;4980399;28;20286;-83
2022/11/17 12:29:58;;;;;;;;;;;21.40;91.30;;;;;;4981292;28;20353;-83
2022/11/17 12:32:50;;;;;;;;;;;21.40;91.40;;;;;;4980430;28;19926;-84
2022/11/17 12:35:22;;;;;;;;;;;21.40;91.40;;;;;;4979002;28;19933;-85
2022/11/17 12:37:49;;;;;;;;;;;21.50;91.50;;;;;;4978095;28;19937;-85
2022/11/17 12:40:30;;;;;;;;;;;21.50;91.40;;;;;;4978914;28;19933;-83
2022/11/17 12:43:20;;;;;;;;;;;21.30;91.00;;;;;;4981147;28;19926;-80
2022/11/17 12:46:06;;;;;;;;;;;21.30;90.20;;;;;;4982671;28;19933;-79
2022/11/17 12:48:34;;;;;;;;;;;21.20;89.90;;;;;;4984078;28;20321;-79
2022/11/17 12:51:04;;;;;;;;;;;21.10;89.30;;;;;;4983704;28;19933;-79
2022/11/17 12:53:34;;;;;;;;;;;21.10;88.90;;;;;;4982377;28;19977;-79
2022/11/17 12:56:17;;;;;;;;;;;21.00;88.30;;;;;;4981822;28;19926;-79
2022/11/17 12:58:50;;;;;;;;;;;21.00;87.80;;;;;;4982480;28;19936;-79
2022/11/17 13:01:23;;;;;;;;;;;21.00;87.30;;;;;;4982088;28;20301;-79
2022/11/17 13:03:54;;;;;;;;;;;20.90;86.70;;;;;;4980976;28;19973;-79
2022/11/17 13:06:20;;;;;;;;;;;21.00;86.30;;;;;;4980131;28;20366;-79
2022/11/17 13:08:57;;;;;;;;;;;21.00;86.30;;;;;;4982853;28;19926;-79
2022/11/17 13:11:24;;;;;;;;;;;21.00;85.80;;;;;;4983906;28;19934;-79
2022/11/17 13:14:05;;;;;;;;;;;21.00;85.40;;;;;;4982286;28;20394;-79
2022/11/17 13:16:32;;;;;;;;;;;21.00;85.00;;;;;;4981953;28;19949;-79
2022/11/17 13:18:59;;;;;;;;;;;21.00;84.70;;;;;;4981616;28;19926;-79
2022/11/17 13:21:29;;;;;;;;;;;21.00;84.30;;;;;;4981893;28;19926;-79
2022/11/17 13:23:56;;;;;;;;;;;21.00;84.00;;;;;;4981350;28;19927;-79
2022/11/17 13:26:24;;;;;;;;;;;21.00;83.70;;;;;;4981132;28;19933;-79
2022/11/17 13:29:03;;;;;;;;;;;21.00;83.50;;;;;;4979575;28;19927;-79
2022/11/17 13:31:30;;;;;;;;;;;21.00;83.30;;;;;;4981712;28;19963;-79
2022/11/17 13:34:01;;;;;;;;;;;21.00;83.00;;;;;;4980191;28;19926;-78
2022/11/17 13:36:28;;;;;;;;;;;20.90;82.60;;;;;;4978883;28;19926;-78
2022/11/17 13:38:56;;;;;;;;;;;20.90;82.40;;;;;;4978693;28;19949;-78
2022/11/17 13:41:24;;;;;;;;;;;20.90;82.30;;;;;;4977521;28;19933;-78
2022/11/17 13:43:51;;;;;;;;;;;20.90;82.10;;;;;;4977342;28;20275;-78
2022/11/17 13:46:19;;;;;;;;;;;20.90;81.90;;;;;;4976222;28;19926;-78
2022/11/17 13:48:46;;;;;;;;;;;20.90;81.80;;;;;;4976039;28;19926;-78
2022/11/17 13:51:17;;;;;;;;;;;20.90;81.60;;;;;;4976388;28;19926;-78
2022/11/17 13:53:45;;;;;;;;;;;20.90;81.50;;;;;;4977022;28;19937;-79
2022/11/17 13:56:20;;;;;;;;;;;20.90;81.30;;;;;;4977560;28;19933;-79
2022/11/17 13:58:48;;;;;;;;;;;20.90;81.20;;;;;;4977223;28;19934;-78
2022/11/17 14:01:20;;;;;;;;;;;20.80;81.20;;;;;;4977138;28;19930;-79
2022/11/17 14:03:47;;;;;;;;;;;20.90;81.30;;;;;;4976698;28;19933;-77
2022/11/17 14:06:14;;;;;;;;;;;20.90;81.20;;;;;;4975417;28;20297;-77
2022/11/17 14:08:42;;;;;;;;;;;20.90;81.20;;;;;;4976045;28;19933;-78
2022/11/17 14:11:19;;;;;;;;;;;20.90;81.10;;;;;;4978508;28;19933;-80
2022/11/17 14:13:47;;;;;;;;;;;20.90;81.10;;;;;;4985422;28;19977;-81
2022/11/17 14:16:25;;;;;;;;;;;20.90;81.20;;;;;;4986726;28;20393;-81
2022/11/17 14:18:57;;;;;;;;;;;20.90;81.10;;;;;;4986680;28;20314;-81
2022/11/17 14:21:24;;;;;;;;;;;20.90;81.20;;;;;;4986207;28;19930;-81
2022/11/17 14:24:00;;;;;;;;;;;20.90;81.20;;;;;;4987297;28;19926;-81
2022/11/17 14:26:26;;;;;;;;;;;20.90;81.20;;;;;;4987280;28;19933;-82
2022/11/17 14:28:54;;;;;;;;;;;20.90;81.20;;;;;;4987166;28;20275;-82
2022/11/17 14:31:20;;;;;;;;;;;20.90;81.10;;;;;;4986433;28;19926;-81
2022/11/17 14:33:47;;;;;;;;;;;20.90;81.20;;;;;;4985972;28;19933;-80
2022/11/17 14:36:16;;;;;;;;;;;20.90;81.20;;;;;;4985376;28;19970;-81
2022/11/17 14:38:42;;;;;;;;;;;20.90;81.20;;;;;;4985764;28;19926;-82
2022/11/17 14:41:09;;;;;;;;;;;20.90;81.20;;;;;;4983842;28;20405;-84
2022/11/17 14:43:36;;;;;;;;;;;20.90;81.30;;;;;;4979962;28;19926;-84
2022/11/17 14:46:04;;;;;;;;;;;20.90;81.40;;;;;;4982399;28;19977;-85
2022/11/17 14:48:31;;;;;;;;;;;20.20;80.70;;;;;;4981737;28;19933;-85
2022/11/17 14:50:58;;;;;;;;;;;20.90;81.50;;;;;;4982213;28;19930;-84
2022/11/17 14:53:27;;;;;;;;;;;20.90;81.50;;;;;;4981221;28;19926;-84
2022/11/17 14:55:54;;;;;;;;;;;20.90;81.50;;;;;;4982155;28;19937;-83
2022/11/17 14:58:21;;;;;;;;;;;20.90;81.50;;;;;;4982106;28;20326;-85
2022/11/17 15:00:48;;;;;;;;;;;20.90;81.50;;;;;;4981088;28;19926;-85
2022/11/17 15:03:15;;;;;;;;;;;20.90;81.50;;;;;;4980705;28;20029;-84
2022/11/17 15:05:44;;;;;;;;;;;20.90;81.50;;;;;;4980451;28;19926;-84
2022/11/17 15:08:11;;;;;;;;;;;20.80;81.50;;;;;;4981284;28;19989;-84
2022/11/17 15:10:44;;;;;;;;;;;20.80;81.50;;;;;;4981442;28;19927;-84
2022/11/17 15:13:11;;;;;;;;;;;20.80;81.50;;;;;;4981027;28;20316;-85
2022/11/17 15:15:38;;;;;;;;;;;20.80;81.50;;;;;;4981642;28;20009;-85
2022/11/17 15:18:05;;;;;;;;;;;20.80;81.40;;;;;;4982587;28;19933;-85
2022/11/17 15:20:32;;;;;;;;;;;20.80;81.50;;;;;;4980779;28;19926;-85
2022/11/17 15:22:58;;;;;;;;;;;20.80;81.50;;;;;;4980200;28;19926;-86
2022/11/17 15:25:25;;;;;;;;;;;20.80;81.60;;;;;;4981413;28;19934;-85
2022/11/17 15:27:54;;;;;;;;;;;20.80;81.70;;;;;;4977856;28;19926;-85
2022/11/17 15:30:20;;;;;;;;;;;20.80;81.70;;;;;;4979951;28;19926;-85
2022/11/17 15:32:47;;;;;;;;;;;21.20;82.20;;;;;;4977638;28;19958;-85
2022/11/17 15:35:14;;;;;;;;;;;20.80;81.80;;;;;;4981043;28;19926;-85
2022/11/17 15:37:40;;;;;;;;;;;20.80;81.80;;;;;;4980313;28;19954;-85
2022/11/17 15:40:07;;;;;;;;;;;20.80;81.90;;;;;;4986431;28;19926;-85
2022/11/17 15:42:35;;;;;;;;;;;20.80;82.00;;;;;;4983560;28;20393;-85
2022/11/17 15:45:03;;;;;;;;;;;20.80;82.00;;;;;;4987603;28;19926;-86
2022/11/17 15:47:30;;;;;;;;;;;20.80;82.10;;;;;;4978171;28;19926;-86
2022/11/17 15:49:57;;;;;;;;;;;20.70;82.10;;;;;;4977418;28;19933;-85
2022/11/17 15:52:24;;;;;;;;;;;20.80;82.30;;;;;;4976311;28;19926;-85
2022/11/17 15:54:51;;;;;;;;;;;20.80;82.40;;;;;;4975441;28;19926;-85
2022/11/17 15:57:18;;;;;;;;;;;20.90;82.80;;;;;;4976345;28;19977;-86
2022/11/17 15:59:44;;;;;;;;;;;20.80;82.60;;;;;;4978826;28;19930;-85
2022/11/17 16:02:13;;;;;;;;;;;20.80;82.80;;;;;;4978769;28;20378;-86
2022/11/17 16:04:39;;;;;;;;;;;20.70;82.60;;;;;;4978735;28;20020;-86
2022/11/17 16:07:06;;;;;;;;;;;20.80;82.80;;;;;;4978766;28;19926;-86
2022/11/17 16:09:33;;;;;;;;;;;21.50;83.70;;;;;;4978203;28;20405;-85
2022/11/17 16:12:00;;;;;;;;;;;20.80;83.00;;;;;;4978723;28;19926;-85
2022/11/17 16:14:26;;;;;;;;;;;20.80;83.10;;;;;;4978702;28;19926;-84
2022/11/17 16:16:54;;;;;;;;;;;20.80;83.20;;;;;;4978100;28;19926;-86
2022/11/17 16:19:22;;;;;;;;;;;20.80;83.30;;;;;;4978168;28;20378;-86
2022/11/17 16:21:48;;;;;;;;;;;20.80;83.40;;;;;;4978426;28;19933;-86
2022/11/17 16:24:29;;;;;;;;;;;20.50;83.30;;;;;;4978382;28;20028;-85
2022/11/17 16:26:55;;;;;;;;;;;20.80;83.70;;;;;;4978631;28;19949;-83
2022/11/17 16:29:23;;;;;;;;;;;20.80;83.90;;;;;;4979244;28;19933;-84
2022/11/17 16:31:50;;;;;;;;;;;20.80;83.90;;;;;;4978696;28;19977;-82
2022/11/17 16:34:17;;;;;;;;;;;20.80;84.00;;;;;;4979443;28;19929;-83
2022/11/17 16:36:45;;;;;;;;;;;20.80;84.10;;;;;;4979486;28;20484;-82
2022/11/17 16:39:13;;;;;;;;;;;20.70;84.10;;;;;;4979240;28;19949;-83
2022/11/17 16:41:40;;;;;;;;;;;20.70;84.30;;;;;;4979724;28;19926;-83
2022/11/17 16:44:07;;;;;;;;;;;20.80;84.50;;;;;;4978934;28;19926;-82
2022/11/17 16:46:34;;;;;;;;;;;20.80;84.60;;;;;;4979186;28;19934;-82
2022/11/17 16:49:02;;;;;;;;;;;20.80;84.70;;;;;;4979002;28;19933;-83
2022/11/17 16:51:30;;;;;;;;;;;20.80;84.70;;;;;;4978127;28;20298;-83
2022/11/17 16:53:59;;;;;;;;;;;20.80;84.90;;;;;;4978028;28;19926;-83
2022/11/17 16:56:26;;;;;;;;;;;20.80;84.90;;;;;;4977825;28;19926;-83
2022/11/17 16:58:53;;;;;;;;;;;20.80;84.90;;;;;;4978507;28;19926;-83
2022/11/17 17:01:21;;;;;;;;;;;20.80;85.00;;;;;;4977836;28;19961;-83
2022/11/17 17:03:47;;;;;;;;;;;20.70;84.90;;;;;;4977162;28;20271;-83
2022/11/17 17:06:15;;;;;;;;;;;20.70;85.00;;;;;;4977006;28;19927;-83
2022/11/17 17:08:42;;;;;;;;;;;20.70;85.10;;;;;;4976562;28;19926;-83
2022/11/17 17:11:10;;;;;;;;;;;20.70;85.10;;;;;;4977073;28;19926;-83
2022/11/17 17:13:37;;;;;;;;;;;20.70;85.20;;;;;;4977008;28;19926;-83
2022/11/17 17:16:04;;;;;;;;;;;20.70;85.20;;;;;;4976880;28;19930;-83
2022/11/17 17:18:31;;;;;;;;;;;20.70;85.30;;;;;;4976868;28;19926;-83
2022/11/17 17:20:58;;;;;;;;;;;20.70;85.30;;;;;;4977128;28;19930;-82
2022/11/17 17:23:25;;;;;;;;;;;20.70;85.30;;;;;;4976782;28;20287;-84
2022/11/17 17:25:59;;;;;;;;;;;20.70;85.30;;;;;;4977483;28;19926;-85
2022/11/17 17:28:28;;;;;;;;;;;20.70;85.40;;;;;;4976430;28;19933;-85
2022/11/17 17:30:55;;;;;;;;;;;20.70;85.40;;;;;;4976572;28;19930;-85
2022/11/17 17:33:21;;;;;;;;;;;20.70;85.40;;;;;;4976680;28;19933;-84
2022/11/17 17:35:48;;;;;;;;;;;20.70;85.40;;;;;;4976712;28;19933;-85
2022/11/17 17:38:14;;;;;;;;;;;20.70;85.50;;;;;;4976499;28;19930;-85
2022/11/17 17:40:41;;;;;;;;;;;20.70;85.40;;;;;;4976501;28;19933;-87
2022/11/17 17:43:08;;;;;;;;;;;20.70;85.50;;;;;;4976441;28;19927;-84
2022/11/17 17:45:36;;;;;;;;;;;20.50;85.30;;;;;;4976017;28;20519;-86
2022/11/17 17:48:03;;;;;;;;;;;20.70;85.70;;;;;;4976245;28;19933;-85
2022/11/17 17:50:30;;;;;;;;;;;20.70;85.90;;;;;;4975966;28;20397;-86
2022/11/17 17:52:56;;;;;;;;;;;20.70;85.90;;;;;;4975931;28;20389;-87
2022/11/17 17:55:23;;;;;;;;;;;21.00;86.30;;;;;;4976217;28;19933;-85
2022/11/17 17:57:50;;;;;;;;;;;20.80;86.10;;;;;;4976912;28;19927;-87
2022/11/17 18:00:17;;;;;;;;;;;20.80;86.20;;;;;;4976108;28;20301;-86
2022/11/17 18:02:45;;;;;;;;;;;20.80;86.50;;;;;;4976216;28;19933;-86
2022/11/17 18:05:12;;;;;;;;;;;21.40;87.30;;;;;;4975807;28;19926;-86
2022/11/17 18:07:38;;;;;;;;;;;20.10;86.00;;;;;;4975866;28;20020;-86
2022/11/17 18:10:05;;;;;;;;;;;20.80;86.90;;;;;;4975755;28;19930;-86
2022/11/17 18:12:32;;;;;;;;;;;20.90;87.10;;;;;;4975806;28;19926;-86
2022/11/17 18:14:58;;;;;;;;;;;21.00;87.30;;;;;;4975926;28;19933;-86
2022/11/17 18:17:25;;;;;;;;;;;20.20;87.20;;;;;;4976617;28;20309;-85
2022/11/17 18:19:53;;;;;;;;;;;20.80;87.20;;;;;;4975216;28;19926;-85
2022/11/17 18:22:19;;;;;;;;;;;20.80;87.30;;;;;;4976324;28;19926;-86
2022/11/17 18:24:46;;;;;;;;;;;21.00;87.50;;;;;;4976402;28;19926;-84
2022/11/17 18:27:13;;;;;;;;;;;20.80;87.30;;;;;;4976900;28;19926;-83
2022/11/17 18:29:39;;;;;;;;;;;20.80;87.30;;;;;;4975915;28;20405;-85
2022/11/17 18:32:06;;;;;;;;;;;20.80;87.40;;;;;;4976148;28;19926;-84
2022/11/17 18:34:33;;;;;;;;;;;20.80;87.50;;;;;;4976270;28;19933;-84
2022/11/17 18:37:01;;;;;;;;;;;20.40;87.10;;;;;;4976523;28;20396;-83
2022/11/17 18:39:30;;;;;;;;;;;20.70;87.50;;;;;;4978152;28;19926;-83
2022/11/17 18:41:56;;;;;;;;;;;21.40;88.50;;;;;;4975981;28;19926;-84
2022/11/17 18:44:23;;;;;;;;;;;20.90;87.90;;;;;;4975360;28;19933;-84
2022/11/17 18:46:49;;;;;;;;;;;20.70;87.80;;;;;;4975674;28;19933;-84
2022/11/17 18:49:16;;;;;;;;;;;20.80;88.60;;;;;;4976747;28;19926;-84
2022/11/17 18:51:42;;;;;;;;;;;20.80;87.90;;;;;;4976191;28;20296;-84
2022/11/17 18:54:11;;;;;;;;;;;20.80;87.90;;;;;;4976021;28;19927;-84
2022/11/17 18:56:37;;;;;;;;;;;20.70;87.90;;;;;;4975200;28;19932;-84
2022/11/17 18:59:10;;;;;;;;;;;20.70;87.90;;;;;;4976213;28;19926;-84
2022/11/17 19:01:37;;;;;;;;;;;20.70;87.90;;;;;;4976358;28;20416;-84
2022/11/17 19:04:03;;;;;;;;;;;20.50;87.70;;;;;;4975890;28;19926;-84
2022/11/17 19:06:30;;;;;;;;;;;20.70;87.80;;;;;;4976331;28;19933;-84
2022/11/17 19:08:58;;;;;;;;;;;20.80;87.90;;;;;;4975097;28;20421;-84
2022/11/17 19:11:26;;;;;;;;;;;21.00;88.10;;;;;;4975562;28;19926;-84
2022/11/17 19:13:53;;;;;;;;;;;20.50;87.60;;;;;;4975147;28;20382;-83
2022/11/17 19:16:20;;;;;;;;;;;20.70;87.80;;;;;;4975453;28;19926;-84
2022/11/17 19:18:48;;;;;;;;;;;20.70;87.70;;;;;;4975541;28;19926;-82
2022/11/17 19:21:15;;;;;;;;;;;20.70;88.00;;;;;;4975430;28;19926;-81
2022/11/17 19:23:42;;;;;;;;;;;20.70;88.20;;;;;;4975304;28;19934;-81
2022/11/17 19:26:10;;;;;;;;;;;20.70;88.30;;;;;;4975402;28;19927;-81
2022/11/17 19:28:38;;;;;;;;;;;20.70;88.40;;;;;;4975088;28;20378;-81
2022/11/17 19:31:06;;;;;;;;;;;20.80;88.60;;;;;;4975685;28;20378;-84
2022/11/17 19:33:33;;;;;;;;;;;20.70;88.60;;;;;;4978859;28;19933;-84
2022/11/17 19:36:02;;;;;;;;;;;20.80;88.90;;;;;;4979608;28;19926;-82
2022/11/17 19:38:30;;;;;;;;;;;20.80;89.20;;;;;;4982834;28;19926;-84
2022/11/17 19:41:00;;;;;;;;;;;20.80;89.50;;;;;;4987702;28;19926;-83
2022/11/17 19:43:27;;;;;;;;;;;20.70;89.50;;;;;;4984666;28;20370;-83
2022/11/17 19:45:58;;;;;;;;;;;19.80;88.70;;;;;;4984542;28;19948;-83
2022/11/17 19:48:24;;;;;;;;;;;20.80;90.00;;;;;;4985327;28;20378;-83
2022/11/17 19:50:51;;;;;;;;;;;20.80;90.10;;;;;;4983963;28;19949;-83
2022/11/17 19:53:17;;;;;;;;;;;20.80;90.20;;;;;;4983771;28;19941;-83
2022/11/17 19:55:44;;;;;;;;;;;20.80;90.30;;;;;;4983700;28;19933;-84
2022/11/17 19:58:10;;;;;;;;;;;20.80;90.40;;;;;;4981541;28;19926;-84
2022/11/17 20:00:37;;;;;;;;;;;20.70;90.50;;;;;;4982309;28;19949;-82
2022/11/17 20:03:05;;;;;;;;;;;20.80;90.70;;;;;;4982618;28;20002;-82
2022/11/17 20:05:32;;;;;;;;;;;20.80;90.70;;;;;;4981939;28;19933;-83
2022/11/17 20:07:58;;;;;;;;;;;20.80;90.70;;;;;;4984281;28;19926;-83
2022/11/17 20:10:25;;;;;;;;;;;20.90;90.90;;;;;;4983109;28;19947;-83
2022/11/17 20:12:52;;;;;;;;;;;20.80;91.00;;;;;;4983409;28;19930;-83
2022/11/17 20:15:18;;;;;;;;;;;21.00;91.20;;;;;;4983021;28;19926;-83
2022/11/17 20:17:45;;;;;;;;;;;20.80;91.20;;;;;;4982381;28;20309;-83
2022/11/17 20:20:14;;;;;;;;;;;20.80;91.30;;;;;;4982282;28;19933;-83
2022/11/17 20:22:40;;;;;;;;;;;20.80;91.50;;;;;;4981497;28;19933;-83
2022/11/17 20:25:07;;;;;;;;;;;20.80;91.60;;;;;;4981770;28;19993;-83
2022/11/17 20:27:34;;;;;;;;;;;20.80;91.70;;;;;;4982103;28;19933;-83
2022/11/17 20:30:00;;;;;;;;;;;21.10;91.90;;;;;;4981128;28;19926;-83
2022/11/17 20:32:29;;;;;;;;;;;20.80;91.90;;;;;;4980623;28;19927;-83
2022/11/17 20:34:55;;;;;;;;;;;20.80;92.00;;;;;;4980924;28;19930;-83
2022/11/17 20:37:24;;;;;;;;;;;20.90;92.10;;;;;;4980698;28;19933;-83
2022/11/17 20:39:50;;;;;;;;;;;20.80;92.20;;;;;;4980239;28;19926;-83
2022/11/17 20:42:17;;;;;;;;;;;20.80;92.30;;;;;;4979771;28;19926;-83
2022/11/17 20:44:44;;;;;;;;;;;20.90;92.40;;;;;;4979667;28;20286;-83
2022/11/17 20:47:11;;;;;;;;;;;20.80;92.50;;;;;;4979877;28;19926;-83
2022/11/17 20:49:37;;;;;;;;;;;20.80;92.60;;;;;;4979602;28;19926;-83
2022/11/17 20:52:04;;;;;;;;;;;20.80;92.70;;;;;;4979892;28;19941;-83
2022/11/17 20:54:32;;;;;;;;;;;20.80;92.80;;;;;;4978800;28;19926;-84
2022/11/17 20:56:59;;;;;;;;;;;20.80;92.90;;;;;;4979089;28;19926;-83
2022/11/17 20:59:25;;;;;;;;;;;20.80;93.10;;;;;;4979409;28;19934;-83
2022/11/17 21:01:52;;;;;;;;;;;20.60;93.10;;;;;;4978950;28;19926;-83
2022/11/17 21:04:18;;;;;;;;;;;20.80;93.20;;;;;;4978535;28;19930;-83
2022/11/17 21:06:45;;;;;;;;;;;21.00;93.30;;;;;;4978467;28;20437;-83
2022/11/17 21:09:11;;;;;;;;;;;20.80;93.30;;;;;;4979350;28;19927;-83
2022/11/17 21:11:57;;;;;;;;;;;20.80;93.40;;;;;;4979015;28;19933;-83
2022/11/17 21:14:25;;;;;;;;;;;20.80;93.60;;;;;;4978465;28;19926;-83
2022/11/17 21:16:52;;;;;;;;;;;20.80;93.70;;;;;;4979023;28;19933;-83
2022/11/17 21:19:19;;;;;;;;;;;20.70;93.70;;;;;;4978688;28;19933;-83
2022/11/17 21:21:46;;;;;;;;;;;20.80;93.90;;;;;;4979008;28;19961;-83
2022/11/17 21:24:12;;;;;;;;;;;20.80;94.00;;;;;;4978911;28;19926;-83
2022/11/17 21:26:40;;;;;;;;;;;20.80;94.10;;;;;;4978841;28;19932;-83
2022/11/17 21:29:07;;;;;;;;;;;20.80;94.20;;;;;;4979041;28;19926;-83
